Time;durP1;ratioP1;P1;durP2;ratioP2;P2;SDS_P1;SDS_P2;PMS_P1;PMS_P2;Temp;Humidity;BMP_temperature;BMP_pressure;BME280_temperature;BME280_humidity;BME280_pressure;Samples;Min_cycle;Max_cycle;Signal;HPM_P1;HPM_P2
2021/08/06 00:02:16;;;;;;;0.80;0.40;;;18.40;99.90;;;;;;5059846;28;20448;-85
2021/08/06 00:04:43;;;;;;;0.80;0.50;;;18.30;99.90;;;;;;5059067;28;20959;-83
2021/08/06 00:07:11;;;;;;;0.50;0.40;;;18.30;99.90;;;;;;5059802;28;21001;-85
2021/08/06 00:09:39;;;;;;;0.50;0.40;;;18.30;99.90;;;;;;5059497;28;20441;-83
2021/08/06 00:12:08;;;;;;;0.50;0.40;;;18.40;99.90;;;;;;5060488;28;20437;-85
2021/08/06 00:14:36;;;;;;;1.00;1.00;;;18.40;99.90;;;;;;5060471;28;20441;-85
2021/08/06 00:17:04;;;;;;;0.50;0.40;;;18.40;99.90;;;;;;5061325;28;20455;-84
2021/08/06 00:19:31;;;;;;;0.50;0.30;;;18.40;99.90;;;;;;5060995;28;20934;-85
2021/08/06 00:21:57;;;;;;;0.50;0.30;;;18.40;99.90;;;;;;5060610;28;20430;-84
2021/08/06 00:24:24;;;;;;;0.50;0.40;;;18.40;99.90;;;;;;5060304;28;20452;-85
2021/08/06 00:26:51;;;;;;;0.50;0.30;;;18.40;99.90;;;;;;5059620;28;20477;-85
2021/08/06 00:29:19;;;;;;;0.50;0.40;;;18.40;99.90;;;;;;5060367;28;20448;-85
2021/08/06 00:31:46;;;;;;;0.50;0.30;;;18.40;99.90;;;;;;5059765;28;20476;-84
2021/08/06 00:34:13;;;;;;;0.50;0.40;;;18.40;99.90;;;;;;5060271;28;20445;-82
2021/08/06 00:36:40;;;;;;;0.50;0.40;;;18.50;99.90;;;;;;5060330;28;20667;-85
2021/08/06 00:39:07;;;;;;;0.50;0.30;;;18.50;99.90;;;;;;5060351;28;20449;-84
2021/08/06 00:41:35;;;;;;;0.50;0.40;;;18.50;99.90;;;;;;5060125;28;20438;-84
2021/08/06 00:44:02;;;;;;;0.50;0.30;;;18.50;99.90;;;;;;5059996;28;20877;-85
2021/08/06 00:46:30;;;;;;;0.50;0.30;;;18.50;99.90;;;;;;5059796;28;20485;-85
2021/08/06 00:48:58;;;;;;;0.50;0.40;;;18.50;99.90;;;;;;5059511;28;20437;-84
2021/08/06 00:51:24;;;;;;;0.50;0.40;;;18.50;99.90;;;;;;5059963;28;20441;-85
2021/08/06 00:53:51;;;;;;;0.50;0.37;;;18.50;99.90;;;;;;5059978;28;20946;-84
2021/08/06 00:56:18;;;;;;;0.50;0.30;;;18.50;99.90;;;;;;5059389;28;20429;-84
2021/08/06 00:58:45;;;;;;;0.50;0.30;;;18.60;99.90;;;;;;5059574;28;20799;-84
2021/08/06 01:01:12;;;;;;;0.50;0.30;;;18.50;99.90;;;;;;5059786;28;20965;-84
2021/08/06 01:03:52;;;;;;;0.70;0.70;;;18.50;99.90;;;;;;5059946;28;20444;-84
2021/08/06 01:06:24;;;;;;;0.50;0.40;;;18.50;99.90;;;;;;5059454;28;20476;-84
2021/08/06 01:08:56;;;;;;;2.27;0.87;;;18.60;99.90;;;;;;5058691;28;20441;-84
2021/08/06 01:11:27;;;;;;;0.50;0.30;;;18.50;99.90;;;;;;5058073;28;20463;-84
2021/08/06 01:13:56;;;;;;;0.50;0.30;;;18.50;99.90;;;;;;5059527;28;20442;-85
2021/08/06 01:16:28;;;;;;;0.77;0.73;;;18.50;99.90;;;;;;5059191;28;20465;-85
2021/08/06 01:19:05;;;;;;;0.50;0.40;;;18.50;99.90;;;;;;5059150;28;20438;-84
2021/08/06 01:21:38;;;;;;;0.50;0.30;;;18.50;99.90;;;;;;5058843;28;20450;-84
2021/08/06 01:24:09;;;;;;;1.37;0.60;;;18.50;99.90;;;;;;5059272;28;20449;-84
2021/08/06 01:26:39;;;;;;;0.50;0.40;;;18.50;99.90;;;;;;5058224;28;20485;-84
2021/08/06 01:29:06;;;;;;;0.50;0.30;;;18.50;99.90;;;;;;5058872;28;20940;-84
2021/08/06 01:31:33;;;;;;;0.50;0.30;;;18.50;99.90;;;;;;5058255;28;20943;-84
2021/08/06 01:34:00;;;;;;;1.17;1.17;;;18.50;99.90;;;;;;5058260;28;20447;-83
2021/08/06 01:36:27;;;;;;;0.50;0.30;;;18.50;99.90;;;;;;5059003;28;20454;-84
2021/08/06 01:38:54;;;;;;;0.50;0.30;;;18.40;99.90;;;;;;5058961;28;20442;-84
2021/08/06 01:41:28;;;;;;;0.50;0.30;;;18.40;99.90;;;;;;5058239;28;20446;-83
2021/08/06 01:44:03;;;;;;;0.50;0.40;;;18.30;99.90;;;;;;5058632;28;20438;-82
2021/08/06 01:46:35;;;;;;;0.50;0.30;;;18.30;99.90;;;;;;5058450;28;20481;-84
2021/08/06 01:49:05;;;;;;;0.50;0.30;;;18.20;99.90;;;;;;5058763;28;20458;-84
2021/08/06 01:51:35;;;;;;;0.50;0.33;;;18.20;99.90;;;;;;5057927;28;20465;-84
2021/08/06 01:54:04;;;;;;;0.50;0.40;;;18.10;99.90;;;;;;5057903;28;20477;-84
2021/08/06 01:56:31;;;;;;;0.50;0.30;;;18.10;99.90;;;;;;5057888;28;20460;-83
2021/08/06 01:59:01;;;;;;;0.50;0.30;;;18.10;99.90;;;;;;5058658;28;20437;-85
2021/08/06 02:01:28;;;;;;;0.50;0.40;;;18.10;99.90;;;;;;5057865;28;20454;-84
2021/08/06 02:03:56;;;;;;;0.50;0.30;;;18.10;99.90;;;;;;5057791;28;20966;-84
2021/08/06 02:06:23;;;;;;;0.70;0.70;;;18.10;99.90;;;;;;5058264;28;20477;-83
2021/08/06 02:08:50;;;;;;;0.50;0.30;;;18.10;99.90;;;;;;5057846;28;20442;-84
2021/08/06 02:11:19;;;;;;;0.50;0.30;;;18.10;99.90;;;;;;5057798;28;20449;-83
2021/08/06 02:13:45;;;;;;;0.50;0.40;;;18.00;99.90;;;;;;5057957;28;20789;-84
2021/08/06 02:16:14;;;;;;;0.50;0.40;;;18.00;99.90;;;;;;5057386;28;20446;-83
2021/08/06 02:18:42;;;;;;;0.50;0.30;;;17.90;99.90;;;;;;5057443;28;20446;-85
2021/08/06 02:21:12;;;;;;;0.50;0.40;;;17.90;99.90;;;;;;5057773;28;20826;-82
2021/08/06 02:23:43;;;;;;;0.50;0.40;;;17.90;99.90;;;;;;5057204;28;20438;-84
2021/08/06 02:26:12;;;;;;;0.50;0.30;;;17.90;99.90;;;;;;5056936;28;20590;-84
2021/08/06 02:28:41;;;;;;;0.50;0.30;;;17.80;99.90;;;;;;5057284;28;20928;-84
2021/08/06 02:31:08;;;;;;;0.50;0.30;;;17.70;99.90;;;;;;5056873;28;20839;-80
2021/08/06 02:33:37;;;;;;;0.50;0.40;;;17.70;99.90;;;;;;5056623;28;20936;-84
2021/08/06 02:36:04;;;;;;;0.50;0.40;;;17.70;99.90;;;;;;5057611;28;20812;-84
2021/08/06 02:38:31;;;;;;;0.50;0.40;;;17.70;99.90;;;;;;5057248;28;20858;-85
2021/08/06 02:40:58;;;;;;;0.50;0.30;;;17.70;99.90;;;;;;5057447;28;20448;-84
2021/08/06 02:43:24;;;;;;;0.50;0.40;;;17.70;99.90;;;;;;5062159;28;20434;-84
2021/08/06 02:45:51;;;;;;;0.50;0.30;;;17.70;99.90;;;;;;5057103;28;20437;-85
2021/08/06 02:48:19;;;;;;;0.50;0.30;;;17.70;99.90;;;;;;5057616;28;20470;-85
2021/08/06 02:50:47;;;;;;;0.50;0.40;;;17.80;99.90;;;;;;5057327;28;20438;-84
2021/08/06 02:53:14;;;;;;;0.50;0.30;;;17.80;99.90;;;;;;5057117;28;20450;-84
2021/08/06 02:55:41;;;;;;;0.50;0.40;;;17.80;99.90;;;;;;5057047;28;20823;-84
2021/08/06 02:58:07;;;;;;;0.50;0.30;;;17.80;99.90;;;;;;5057633;28;20455;-83
2021/08/06 03:00:34;;;;;;;1.77;1.67;;;17.80;99.90;;;;;;5056577;28;20440;-84
2021/08/06 03:03:01;;;;;;;0.50;0.30;;;17.80;99.90;;;;;;5056638;28;20942;-83
2021/08/06 03:05:28;;;;;;;0.50;0.30;;;17.80;99.90;;;;;;5057216;28;20441;-83
2021/08/06 03:07:56;;;;;;;0.50;0.30;;;17.80;99.90;;;;;;5057083;28;20477;-82
2021/08/06 03:10:23;;;;;;;0.50;0.30;;;17.70;99.90;;;;;;5057005;28;20453;-82
2021/08/06 03:12:51;;;;;;;0.50;0.40;;;17.70;99.90;;;;;;5057059;28;20807;-84
2021/08/06 03:15:19;;;;;;;0.50;0.30;;;17.70;99.90;;;;;;5056706;28;20448;-84
2021/08/06 03:17:46;;;;;;;0.50;0.33;;;17.80;99.90;;;;;;5060677;28;20427;-81
2021/08/06 03:20:15;;;;;;;0.50;0.40;;;17.80;99.90;;;;;;5067009;28;20438;-85
2021/08/06 03:22:42;;;;;;;0.50;0.30;;;17.80;99.90;;;;;;5057614;28;20457;-85
2021/08/06 03:25:12;;;;;;;0.50;0.30;;;17.90;99.90;;;;;;5056714;28;20438;-83
2021/08/06 03:27:39;;;;;;;0.80;0.60;;;17.90;99.90;;;;;;5057796;28;20489;-85
2021/08/06 03:30:08;;;;;;;0.50;0.30;;;17.90;99.90;;;;;;5056868;28;20439;-81
2021/08/06 03:32:36;;;;;;;0.60;0.50;;;17.90;99.90;;;;;;5056314;28;20449;-84
2021/08/06 03:35:03;;;;;;;0.50;0.40;;;17.90;99.90;;;;;;5055988;28;20934;-84
2021/08/06 03:37:30;;;;;;;0.53;0.40;;;17.80;99.90;;;;;;5056485;28;20461;-84
2021/08/06 03:39:57;;;;;;;0.50;0.30;;;17.80;99.90;;;;;;5057064;28;20556;-84
2021/08/06 03:42:25;;;;;;;0.50;0.40;;;17.80;99.90;;;;;;5056139;28;20479;-84
2021/08/06 03:44:52;;;;;;;1.37;0.87;;;17.80;99.90;;;;;;5056360;28;20950;-84
2021/08/06 03:47:19;;;;;;;0.50;0.30;;;17.80;99.90;;;;;;5055703;28;20480;-82
2021/08/06 03:49:45;;;;;;;0.50;0.30;;;17.70;99.90;;;;;;5057058;28;20439;-85
2021/08/06 03:52:12;;;;;;;0.50;0.30;;;17.70;99.90;;;;;;5056539;28;20438;-84
2021/08/06 03:54:39;;;;;;;0.50;0.33;;;17.60;99.90;;;;;;5057144;28;20441;-85
2021/08/06 03:57:07;;;;;;;0.50;0.30;;;17.60;99.90;;;;;;5057645;28;20819;-84
2021/08/06 03:59:35;;;;;;;0.50;0.30;;;17.50;99.90;;;;;;5056765;28;20438;-85
2021/08/06 04:02:02;;;;;;;0.50;0.30;;;17.50;99.90;;;;;;5057729;28;20473;-84
2021/08/06 04:04:28;;;;;;;0.50;0.30;;;17.50;99.90;;;;;;5057342;28;20456;-85
2021/08/06 04:06:55;;;;;;;0.50;0.40;;;17.30;99.90;;;;;;5058228;28;20478;-85
2021/08/06 04:09:22;;;;;;;0.77;0.77;;;17.20;99.90;;;;;;5058264;28;20446;-84
2021/08/06 04:11:49;;;;;;;2.30;1.67;;;17.10;99.90;;;;;;5057478;28;20437;-85
2021/08/06 04:14:15;;;;;;;0.50;0.30;;;17.00;99.90;;;;;;5057679;28;20935;-85
2021/08/06 04:16:43;;;;;;;0.53;0.53;;;17.00;99.90;;;;;;5058444;28;20468;-85
2021/08/06 04:19:10;;;;;;;0.50;0.40;;;16.90;99.90;;;;;;5058104;28;20437;-85
2021/08/06 04:21:37;;;;;;;0.50;0.40;;;16.90;99.90;;;;;;5056737;28;20438;-85
2021/08/06 04:24:04;;;;;;;0.50;0.33;;;16.90;99.90;;;;;;5056912;28;20438;-85
2021/08/06 04:26:31;;;;;;;0.50;0.40;;;16.80;99.90;;;;;;5056627;28;20474;-85
2021/08/06 04:28:58;;;;;;;0.50;0.30;;;16.80;99.90;;;;;;5057015;28;20970;-84
2021/08/06 04:31:24;;;;;;;0.50;0.40;;;16.80;99.90;;;;;;5057406;28;20441;-81
2021/08/06 04:33:53;;;;;;;0.50;0.30;;;16.80;99.90;;;;;;5057425;28;20438;-85
2021/08/06 04:36:19;;;;;;;1.37;1.27;;;16.80;99.90;;;;;;5057724;28;20445;-84
2021/08/06 04:38:46;;;;;;;0.50;0.40;;;16.80;99.90;;;;;;5056873;28;20438;-84
2021/08/06 04:41:13;;;;;;;0.50;0.40;;;16.80;99.90;;;;;;5057402;28;20446;-85
2021/08/06 04:43:40;;;;;;;0.50;0.30;;;16.80;99.90;;;;;;5057939;28;20445;-85
2021/08/06 04:46:06;;;;;;;0.50;0.30;;;16.80;99.90;;;;;;5060305;28;20449;-85
2021/08/06 04:48:33;;;;;;;0.50;0.30;;;16.80;99.90;;;;;;5061537;28;20469;-85
2021/08/06 04:51:01;;;;;;;0.50;0.30;;;16.80;99.90;;;;;;5060172;28;20434;-85
2021/08/06 04:53:28;;;;;;;0.50;0.37;;;16.80;99.90;;;;;;5060074;28;20434;-85
2021/08/06 04:55:55;;;;;;;0.50;0.37;;;16.80;99.90;;;;;;5060128;28;20474;-85
2021/08/06 04:58:21;;;;;;;0.50;0.30;;;16.80;99.90;;;;;;5059846;28;20454;-84
2021/08/06 05:00:49;;;;;;;0.50;0.37;;;16.80;99.90;;;;;;5060291;28;20819;-85
2021/08/06 05:03:16;;;;;;;0.50;0.30;;;16.80;99.90;;;;;;5059654;28;20990;-85
2021/08/06 05:05:42;;;;;;;0.50;0.30;;;16.90;99.90;;;;;;5059792;28;20946;-85
2021/08/06 05:08:10;;;;;;;0.50;0.40;;;16.90;99.90;;;;;;5060028;28;20493;-85
2021/08/06 05:10:37;;;;;;;0.50;0.40;;;17.00;99.90;;;;;;5060033;28;20438;-85
2021/08/06 05:13:04;;;;;;;0.60;0.60;;;17.00;99.90;;;;;;5059587;28;21005;-85
2021/08/06 05:15:31;;;;;;;0.50;0.37;;;17.00;99.90;;;;;;5060454;28;20815;-85
2021/08/06 05:17:57;;;;;;;0.50;0.30;;;17.00;99.90;;;;;;5059149;28;20479;-85
2021/08/06 05:20:24;;;;;;;0.50;0.40;;;17.00;99.90;;;;;;5060083;28;20442;-85
2021/08/06 05:22:51;;;;;;;0.50;0.30;;;17.00;99.90;;;;;;5059533;28;20453;-84
2021/08/06 05:25:19;;;;;;;0.60;0.40;;;17.00;99.90;;;;;;5059612;28;20445;-83
2021/08/06 05:27:46;;;;;;;0.50;0.40;;;17.10;99.90;;;;;;5059277;28;20485;-85
2021/08/06 05:30:13;;;;;;;0.50;0.40;;;17.10;99.90;;;;;;5059207;28;20473;-83
2021/08/06 05:32:40;;;;;;;0.50;0.30;;;17.10;99.90;;;;;;5059789;28;20441;-85
2021/08/06 05:35:07;;;;;;;0.77;0.50;;;17.10;99.90;;;;;;5059597;28;20438;-85
2021/08/06 05:37:34;;;;;;;1.93;1.60;;;17.10;99.90;;;;;;5059290;28;20451;-84
2021/08/06 05:40:00;;;;;;;0.50;0.50;;;17.10;99.90;;;;;;5060037;28;20444;-85
2021/08/06 05:42:28;;;;;;;0.50;0.40;;;17.10;99.90;;;;;;5059849;28;20941;-85
2021/08/06 05:44:55;;;;;;;0.80;0.80;;;17.20;99.90;;;;;;5059240;28;20442;-85
2021/08/06 05:47:22;;;;;;;1.80;0.70;;;17.20;99.90;;;;;;5058722;28;20975;-85
2021/08/06 05:49:49;;;;;;;0.73;0.73;;;17.20;99.90;;;;;;5059023;28;20430;-85
2021/08/06 05:52:15;;;;;;;0.50;0.40;;;17.30;99.90;;;;;;5059282;28;20448;-85
2021/08/06 05:54:42;;;;;;;0.50;0.30;;;17.40;99.90;;;;;;5059646;28;20986;-85
2021/08/06 05:57:09;;;;;;;0.50;0.30;;;17.50;99.90;;;;;;5059056;28;20467;-85
2021/08/06 05:59:37;;;;;;;0.50;0.40;;;17.60;99.90;;;;;;5059610;28;20429;-85
2021/08/06 06:02:04;;;;;;;0.50;0.30;;;17.60;99.90;;;;;;5058618;28;20438;-85
2021/08/06 06:04:31;;;;;;;0.50;0.40;;;17.60;99.90;;;;;;5059209;28;20774;-83
2021/08/06 06:06:58;;;;;;;0.50;0.30;;;17.70;99.90;;;;;;5059216;28;20460;-85
2021/08/06 06:09:24;;;;;;;0.50;0.40;;;17.70;99.90;;;;;;5058537;28;20838;-85
2021/08/06 06:11:51;;;;;;;0.50;0.30;;;17.70;99.90;;;;;;5058821;28;20430;-84
2021/08/06 06:14:18;;;;;;;0.50;0.30;;;17.80;99.90;;;;;;5057666;28;20444;-85
2021/08/06 06:16:46;;;;;;;0.50;0.37;;;17.80;99.90;;;;;;5057652;28;20453;-85
2021/08/06 06:19:13;;;;;;;0.50;0.40;;;17.90;99.90;;;;;;5057786;28;20442;-85
2021/08/06 06:21:40;;;;;;;0.50;0.30;;;17.90;99.90;;;;;;5057601;28;20465;-85
2021/08/06 06:24:06;;;;;;;0.50;0.40;;;18.00;99.90;;;;;;5058160;28;20450;-85
2021/08/06 06:26:33;;;;;;;0.50;0.40;;;18.00;99.90;;;;;;5057834;28;20472;-82
2021/08/06 06:29:00;;;;;;;0.63;0.40;;;18.20;99.90;;;;;;5058080;28;20477;-85
2021/08/06 06:31:27;;;;;;;0.70;0.53;;;18.40;99.90;;;;;;5057864;28;20538;-84
2021/08/06 06:33:55;;;;;;;0.80;0.80;;;18.50;99.90;;;;;;5058568;28;20438;-85
2021/08/06 06:36:22;;;;;;;0.50;0.30;;;18.60;99.90;;;;;;5057973;28;20471;-85
2021/08/06 06:38:49;;;;;;;0.50;0.30;;;18.70;99.90;;;;;;5057807;28;20427;-85
2021/08/06 06:41:15;;;;;;;0.50;0.40;;;18.80;99.90;;;;;;5057825;28;20442;-85
2021/08/06 06:43:42;;;;;;;0.50;0.37;;;18.80;99.90;;;;;;5057589;28;20774;-85
2021/08/06 06:46:09;;;;;;;0.50;0.30;;;18.80;99.90;;;;;;5057221;28;20433;-85
2021/08/06 06:48:36;;;;;;;0.50;0.40;;;18.70;99.90;;;;;;5057561;28;20473;-85
2021/08/06 06:51:04;;;;;;;0.50;0.30;;;18.60;99.90;;;;;;5056623;28;20997;-84
2021/08/06 06:53:31;;;;;;;0.80;0.73;;;18.50;99.90;;;;;;5058186;28;20442;-84
2021/08/06 06:55:57;;;;;;;2.13;0.93;;;18.40;99.90;;;;;;5057734;28;20508;-85
2021/08/06 06:58:24;;;;;;;0.60;0.60;;;18.20;99.90;;;;;;5057847;28;20455;-85
2021/08/06 07:00:51;;;;;;;0.50;0.37;;;18.10;99.90;;;;;;5057386;28;20460;-85
2021/08/06 07:03:18;;;;;;;0.60;0.60;;;18.00;99.90;;;;;;5056192;28;20893;-84
2021/08/06 07:05:44;;;;;;;0.50;0.30;;;18.00;99.90;;;;;;5056257;28;20434;-85
2021/08/06 07:08:12;;;;;;;0.50;0.30;;;17.90;99.90;;;;;;5055376;28;20676;-85
2021/08/06 07:10:39;;;;;;;0.73;0.53;;;17.90;99.90;;;;;;5056179;28;20448;-85
2021/08/06 07:13:06;;;;;;;0.70;0.67;;;17.80;99.90;;;;;;5056686;28;20464;-84
2021/08/06 07:15:33;;;;;;;0.50;0.40;;;17.80;99.90;;;;;;5056928;28;20441;-84
2021/08/06 07:18:00;;;;;;;1.60;1.53;;;17.90;99.90;;;;;;5055804;28;20850;-84
2021/08/06 07:20:27;;;;;;;0.50;0.40;;;17.90;99.90;;;;;;5055201;28;20429;-84
2021/08/06 07:22:55;;;;;;;0.50;0.30;;;18.00;99.90;;;;;;5055135;28;20443;-85
2021/08/06 07:25:24;;;;;;;0.50;0.30;;;18.00;99.90;;;;;;5062719;28;20542;-85
2021/08/06 07:27:52;;;;;;;0.50;0.40;;;18.20;99.90;;;;;;5056598;28;20465;-85
2021/08/06 07:30:19;;;;;;;0.50;0.37;;;18.30;99.90;;;;;;5056003;28;20643;-86
2021/08/06 07:32:45;;;;;;;0.50;0.30;;;18.50;99.90;;;;;;5056252;28;20524;-85
2021/08/06 07:35:13;;;;;;;1.53;0.80;;;18.80;99.90;;;;;;5056896;28;20780;-84
2021/08/06 07:37:41;;;;;;;0.60;0.50;;;19.00;99.90;;;;;;5056309;28;20457;-86
2021/08/06 07:40:10;;;;;;;0.73;0.50;;;19.30;99.90;;;;;;5056087;28;20953;-81
2021/08/06 07:42:38;;;;;;;0.50;0.30;;;20.00;99.90;;;;;;5056691;28;20944;-86
2021/08/06 07:45:06;;;;;;;0.50;0.40;;;21.00;99.90;;;;;;5056962;28;20995;-83
2021/08/06 07:47:33;;;;;;;0.50;0.50;;;22.10;99.90;;;;;;5056340;28;20461;-84
2021/08/06 07:50:00;;;;;;;0.50;0.40;;;22.70;99.90;;;;;;5055910;28;20484;-86
2021/08/06 07:52:27;;;;;;;0.50;0.40;;;23.70;99.90;;;;;;5056801;28;20527;-85
2021/08/06 07:54:54;;;;;;;0.50;0.37;;;23.60;99.90;;;;;;5056563;28;20448;-86
2021/08/06 07:57:20;;;;;;;0.50;0.30;;;23.20;99.90;;;;;;5056679;28;20456;-82
2021/08/06 07:59:48;;;;;;;0.50;0.37;;;23.10;99.90;;;;;;5056131;28;20448;-85
2021/08/06 08:02:15;;;;;;;0.50;0.50;;;23.10;99.90;;;;;;5055354;28;20796;-85
2021/08/06 08:04:42;;;;;;;0.50;0.30;;;22.60;99.90;;;;;;5056448;28;20948;-83
2021/08/06 08:07:09;;;;;;;0.50;0.30;;;22.10;99.90;;;;;;5056730;28;20468;-85
2021/08/06 08:09:35;;;;;;;0.67;0.67;;;22.00;99.90;;;;;;5057520;28;20490;-85
2021/08/06 08:12:02;;;;;;;0.50;0.30;;;21.50;99.90;;;;;;5056530;28;20443;-84
2021/08/06 08:14:29;;;;;;;0.97;0.80;;;21.00;99.90;;;;;;5056893;28;20451;-85
2021/08/06 08:16:57;;;;;;;0.50;0.50;;;20.80;99.90;;;;;;5057237;28;20466;-85
2021/08/06 08:19:24;;;;;;;0.50;0.30;;;20.80;99.90;;;;;;5059430;28;20444;-85
2021/08/06 08:21:50;;;;;;;1.07;1.00;;;21.30;99.90;;;;;;5061563;28;20802;-84
2021/08/06 08:24:17;;;;;;;0.50;0.30;;;22.60;99.90;;;;;;5061747;28;20527;-85
2021/08/06 08:26:44;;;;;;;0.50;0.47;;;23.30;99.90;;;;;;5059392;28;20469;-85
2021/08/06 08:29:11;;;;;;;0.50;0.40;;;23.00;99.90;;;;;;5059974;28;20482;-85
2021/08/06 08:31:38;;;;;;;0.60;0.40;;;22.20;99.90;;;;;;5060919;28;20464;-84
2021/08/06 08:34:06;;;;;;;2.40;0.97;;;21.80;99.90;;;;;;5060857;28;20809;-84
2021/08/06 08:36:34;;;;;;;0.90;0.60;;;21.00;99.90;;;;;;5060189;28;20454;-84
2021/08/06 08:39:02;;;;;;;0.50;0.40;;;20.00;99.90;;;;;;5061622;28;20467;-83
2021/08/06 08:41:28;;;;;;;0.50;0.30;;;19.40;99.90;;;;;;5064118;28;20434;-84
2021/08/06 08:43:56;;;;;;;0.80;0.80;;;18.80;99.90;;;;;;5063169;28;20449;-84
2021/08/06 08:46:26;;;;;;;1.17;1.07;;;18.60;99.90;;;;;;5061692;28;20461;-84
2021/08/06 08:48:57;;;;;;;0.50;0.30;;;18.40;99.90;;;;;;5060943;28;20800;-84
2021/08/06 08:51:27;;;;;;;0.50;0.40;;;18.40;99.90;;;;;;5061050;28;20433;-85
2021/08/06 08:53:55;;;;;;;0.50;0.30;;;18.90;99.90;;;;;;5060440;28;20438;-85
2021/08/06 08:56:23;;;;;;;0.50;0.30;;;20.50;99.90;;;;;;5060249;28;20448;-86
2021/08/06 08:58:50;;;;;;;0.50;0.50;;;21.80;99.90;;;;;;5060270;28;20440;-85
2021/08/06 09:01:16;;;;;;;0.50;0.40;;;21.40;99.90;;;;;;5059794;28;20794;-85
2021/08/06 09:03:46;;;;;;;1.20;0.97;;;21.30;99.90;;;;;;5060027;28;20446;-85
2021/08/06 09:06:14;;;;;;;0.50;0.50;;;21.00;99.90;;;;;;5059628;28;20483;-84
2021/08/06 09:08:42;;;;;;;0.50;0.40;;;20.80;99.90;;;;;;5060522;28;20480;-86
2021/08/06 09:11:29;;;;;;;1.07;0.80;;;21.00;99.90;;;;;;5059237;28;20434;-85
2021/08/06 09:14:16;;;;;;;0.50;0.40;;;20.50;99.90;;;;;;5059996;28;20443;-84
2021/08/06 09:16:55;;;;;;;0.50;0.40;;;20.20;99.90;;;;;;5059635;28;20889;-85
2021/08/06 09:19:21;;;;;;;0.50;0.30;;;20.10;99.90;;;;;;5059988;28;20439;-85
2021/08/06 09:21:48;;;;;;;0.50;0.30;;;19.90;99.90;;;;;;5059419;28;20552;-82
2021/08/06 09:24:16;;;;;;;0.50;0.30;;;19.90;99.90;;;;;;5059495;28;20468;-80
2021/08/06 09:26:44;;;;;;;1.07;1.07;;;20.20;99.90;;;;;;5058822;28;20469;-80
2021/08/06 09:29:17;;;;;;;0.50;0.40;;;20.40;99.90;;;;;;5060160;28;20483;-85
2021/08/06 09:31:55;;;;;;;0.80;0.50;;;20.60;99.90;;;;;;5058575;28;20472;-84
2021/08/06 09:34:24;;;;;;;1.97;1.00;;;20.20;99.90;;;;;;5060210;28;20414;-84
2021/08/06 09:37:10;;;;;;;1.33;0.80;;;19.80;99.90;;;;;;5059996;28;20484;-85
2021/08/06 09:39:42;;;;;;;0.70;0.70;;;19.60;99.90;;;;;;5061284;28;20754;-84
2021/08/06 09:42:17;;;;;;;0.50;0.40;;;20.10;99.90;;;;;;5060919;28;20444;-86
2021/08/06 09:44:44;;;;;;;0.87;0.70;;;20.80;99.90;;;;;;5060363;28;20429;-83
2021/08/06 09:47:22;;;;;;;0.50;0.30;;;21.70;99.90;;;;;;5061309;28;20454;-85
2021/08/06 09:49:51;;;;;;;0.70;0.63;;;21.60;99.90;;;;;;5059839;28;20484;-85
2021/08/06 09:52:26;;;;;;;0.50;0.40;;;21.30;99.90;;;;;;5059733;28;20474;-85
2021/08/06 09:54:54;;;;;;;0.60;0.50;;;21.30;99.90;;;;;;5059042;28;20446;-85
2021/08/06 09:57:21;;;;;;;0.93;0.77;;;21.30;99.90;;;;;;5059010;28;20465;-84
2021/08/06 09:59:51;;;;;;;0.97;0.67;;;21.00;99.90;;;;;;5059603;28;20442;-85
2021/08/06 10:02:21;;;;;;;0.60;0.50;;;21.40;99.90;;;;;;5060265;28;20430;-86
2021/08/06 10:04:59;;;;;;;0.50;0.37;;;22.30;99.90;;;;;;5058442;28;20448;-86
2021/08/06 10:07:27;;;;;;;0.50;0.30;;;23.20;99.90;;;;;;5060268;28;20526;-85
2021/08/06 10:09:56;;;;;;;0.50;0.40;;;23.60;99.90;;;;;;5058735;28;20478;-85
2021/08/06 10:12:23;;;;;;;0.70;0.70;;;23.30;99.90;;;;;;5059016;28;20527;-85
2021/08/06 10:14:50;;;;;;;0.50;0.30;;;22.60;99.90;;;;;;5059105;28;20446;-85
2021/08/06 10:17:17;;;;;;;0.50;0.30;;;22.60;99.90;;;;;;5058624;28;20462;-85
2021/08/06 10:19:44;;;;;;;0.50;0.40;;;22.50;99.90;;;;;;5058275;28;20446;-86
2021/08/06 10:22:10;;;;;;;1.00;0.83;;;22.80;99.90;;;;;;5058421;28;20451;-85
2021/08/06 10:24:39;;;;;;;0.50;0.40;;;23.80;99.90;;;;;;5058603;28;20445;-86
2021/08/06 10:27:08;;;;;;;1.27;0.60;;;24.30;99.90;;;;;;5056713;28;20473;-81
2021/08/06 10:29:35;;;;;;;0.53;0.47;;;24.10;99.90;;;;;;5057707;28;20500;-85
2021/08/06 10:32:14;;;;;;;0.50;0.40;;;24.50;99.90;;;;;;5058870;28;20803;-86
2021/08/06 10:35:14;;;;;;;0.60;0.40;;;24.60;99.90;;;;;;5058435;28;20720;-85
2021/08/06 10:38:14;;;;;;;0.50;0.30;;;24.90;99.90;;;;;;5058073;28;20537;-86
2021/08/06 10:40:55;;;;;;;0.50;0.40;;;24.50;99.90;;;;;;5016869;28;20422;-85
2021/08/06 10:43:43;;;;;;;0.80;0.53;;;24.60;99.90;;;;;;5018390;28;20444;-85
2021/08/06 10:46:11;;;;;;;0.50;0.40;;;24.60;99.90;;;;;;5019731;28;20435;-85
2021/08/06 10:48:40;;;;;;;0.50;0.33;;;25.60;99.90;;;;;;5018257;28;20644;-85
2021/08/06 10:51:31;;;;;;;0.60;0.60;;;26.30;99.90;;;;;;5016919;28;20513;-85
2021/08/06 10:54:26;;;;;;;1.03;0.50;;;26.30;99.90;;;;;;5016409;28;20932;-85
2021/08/06 10:57:14;;;;;;;0.60;0.53;;;26.70;99.90;;;;;;5016236;28;20532;-85
2021/08/06 10:59:43;;;;;;;0.50;0.30;;;25.90;99.90;;;;;;5015948;28;20609;-84
2021/08/06 11:02:51;;;;;;;0.60;0.60;;;26.00;99.90;;;;;;5015189;28;20452;-85
2021/08/06 11:05:42;;;;;;;1.07;0.97;;;25.20;99.90;;;;;;5015337;28;20442;-81
2021/08/06 11:08:54;;;;;;;0.70;0.70;;;25.30;99.90;;;;;;5015917;28;20459;-84
2021/08/06 11:11:45;;;;;;;0.50;0.30;;;24.80;99.90;;;;;;5031110;28;20533;-84
2021/08/06 11:14:13;;;;;;;0.50;0.40;;;23.90;99.90;;;;;;5057228;28;20435;-85
2021/08/06 11:17:01;;;;;;;0.50;0.30;;;23.00;99.90;;;;;;5057341;28;20496;-85
2021/08/06 11:19:29;;;;;;;0.50;0.37;;;22.20;99.90;;;;;;5056669;28;20442;-83
2021/08/06 11:21:56;;;;;;;0.50;0.40;;;21.60;99.90;;;;;;5060313;28;20436;-81
2021/08/06 11:24:23;;;;;;;0.50;0.30;;;21.20;99.90;;;;;;5074228;28;20429;-83
2021/08/06 11:26:51;;;;;;;0.50;0.30;;;20.90;99.90;;;;;;5073843;28;20451;-84
2021/08/06 11:29:19;;;;;;;0.50;0.40;;;20.80;99.90;;;;;;5068924;28;20466;-83
2021/08/06 11:31:58;;;;;;;0.70;0.70;;;20.50;99.90;;;;;;5054369;28;20433;-84
2021/08/06 11:34:26;;;;;;;2.20;0.60;;;20.30;99.90;;;;;;5054899;28;20441;-82
2021/08/06 11:36:58;;;;;;;0.50;0.40;;;20.30;99.90;;;;;;5054003;28;20474;-83
2021/08/06 11:39:25;;;;;;;0.50;0.40;;;20.20;99.90;;;;;;5053704;28;20434;-83
2021/08/06 11:41:53;;;;;;;0.57;0.57;;;20.00;99.90;;;;;;5053776;28;20512;-83
2021/08/06 11:45:00;;;;;;;0.50;0.40;;;19.90;99.90;;;;;;5054981;28;20442;-83
2021/08/06 11:47:44;;;;;;;0.60;0.50;;;19.80;99.90;;;;;;5011485;28;20462;-82
2021/08/06 11:50:15;;;;;;;0.60;0.40;;;19.80;99.90;;;;;;5010815;28;20475;-80
2021/08/06 11:52:43;;;;;;;0.50;0.30;;;19.70;99.90;;;;;;5018580;28;20446;-83
2021/08/06 11:55:12;;;;;;;0.50;0.30;;;19.80;99.90;;;;;;5028284;28;20514;-82
2021/08/06 11:57:57;;;;;;;0.50;0.30;;;20.00;99.90;;;;;;5027110;28;20455;-80
2021/08/06 12:00:27;;;;;;;0.50;0.40;;;20.40;99.90;;;;;;5025642;28;20420;-83
2021/08/06 12:03:01;;;;;;;0.50;0.40;;;20.70;99.90;;;;;;5014685;28;20983;-83
2021/08/06 12:05:29;;;;;;;0.50;0.40;;;21.80;99.90;;;;;;5014974;28;20544;-83
2021/08/06 12:07:56;;;;;;;0.50;0.40;;;23.00;99.90;;;;;;5014231;28;20469;-83
2021/08/06 12:10:26;;;;;;;0.77;0.77;;;24.20;99.90;;;;;;5013683;28;20480;-83
2021/08/06 12:12:53;;;;;;;0.50;0.30;;;24.30;99.90;;;;;;5014256;28;20915;-83
2021/08/06 12:15:22;;;;;;;0.50;0.40;;;24.10;99.90;;;;;;5014455;28;20463;-81
2021/08/06 12:17:49;;;;;;;0.67;0.63;;;24.10;99.90;;;;;;5014464;28;20513;-83
2021/08/06 12:20:38;;;;;;;1.17;0.63;;;23.80;99.90;;;;;;5014374;28;20431;-82
2021/08/06 12:23:05;;;;;;;0.90;0.40;;;23.70;99.90;;;;;;5014208;28;20439;-83
2021/08/06 12:25:33;;;;;;;0.50;0.40;;;23.60;99.90;;;;;;5056537;28;20432;-84
2021/08/06 12:28:01;;;;;;;0.57;0.40;;;23.30;99.90;;;;;;5057185;28;20560;-83
2021/08/06 12:30:30;;;;;;;0.63;0.60;;;23.10;99.90;;;;;;5058719;28;20479;-84
2021/08/06 12:32:57;;;;;;;0.50;0.40;;;23.50;99.90;;;;;;5059867;28;20450;-84
2021/08/06 12:35:25;;;;;;;0.50;0.30;;;23.20;99.90;;;;;;5069788;28;20469;-84
2021/08/06 12:37:54;;;;;;;0.50;0.30;;;23.70;99.90;;;;;;5068961;28;20462;-83
2021/08/06 12:40:22;;;;;;;0.50;0.40;;;25.30;99.90;;;;;;5073643;28;20445;-84
2021/08/06 12:42:50;;;;;;;0.73;0.60;;;26.50;99.90;;;;;;5058533;28;20958;-83
2021/08/06 12:45:20;;;;;;;0.87;0.60;;;27.30;99.90;;;;;;5057832;28;20499;-83
2021/08/06 12:47:48;;;;;;;0.80;0.70;;;26.20;99.90;;;;;;5057779;28;20846;-84
2021/08/06 12:50:18;;;;;;;0.70;0.40;;;25.90;99.90;;;;;;5057317;28;20481;-82
2021/08/06 12:52:46;;;;;;;0.50;0.30;;;26.60;99.90;;;;;;5058376;28;20442;-82
2021/08/06 12:55:17;;;;;;;0.83;0.43;;;26.50;99.90;;;;;;5057852;28;20439;-82
2021/08/06 12:57:53;;;;;;;0.50;0.30;;;26.10;99.90;;;;;;5057242;28;20779;-84
2021/08/06 13:00:26;;;;;;;0.50;0.30;;;25.90;99.90;;;;;;5057200;28;20433;-84